sensor_id;sensor_type;location;lat;lon;timestamp;P1;durP1;ratioP1;P2;durP2;ratioP2
66212;SDS011;53015;50.046;8.238;2022-08-19T00:01:50;13.80;;;11.25;;
66212;SDS011;53015;50.046;8.238;2022-08-19T00:04:17;14.73;;;11.23;;
66212;SDS011;53015;50.046;8.238;2022-08-19T00:06:45;13.90;;;10.95;;
66212;SDS011;53015;50.046;8.238;2022-08-19T00:09:12;14.52;;;11.60;;
66212;SDS011;53015;50.046;8.238;2022-08-19T00:11:40;13.95;;;11.40;;
66212;SDS011;53015;50.046;8.238;2022-08-19T00:14:06;13.75;;;11.77;;
66212;SDS011;53015;50.046;8.238;2022-08-19T00:16:34;14.02;;;10.85;;
66212;SDS011;53015;50.046;8.238;2022-08-19T00:19:01;14.88;;;11.35;;
66212;SDS011;53015;50.046;8.238;2022-08-19T00:21:26;16.05;;;11.43;;
66212;SDS011;53015;50.046;8.238;2022-08-19T00:23:52;13.25;;;11.52;;
66212;SDS011;53015;50.046;8.238;2022-08-19T00:26:19;16.42;;;10.77;;
66212;SDS011;53015;50.046;8.238;2022-08-19T00:28:44;13.98;;;12.13;;
66212;SDS011;53015;50.046;8.238;2022-08-19T00:31:11;13.60;;;11.10;;
66212;SDS011;53015;50.046;8.238;2022-08-19T00:33:36;13.25;;;11.52;;
66212;SDS011;53015;50.046;8.238;2022-08-19T00:36:03;14.75;;;11.93;;
66212;SDS011;53015;50.046;8.238;2022-08-19T00:38:31;15.27;;;11.98;;
66212;SDS011;53015;50.046;8.238;2022-08-19T00:40:57;15.15;;;12.13;;
66212;SDS011;53015;50.046;8.238;2022-08-19T00:43:24;15.00;;;11.52;;
66212;SDS011;53015;50.046;8.238;2022-08-19T00:45:51;16.45;;;11.93;;
66212;SDS011;53015;50.046;8.238;2022-08-19T00:48:19;14.70;;;12.48;;
66212;SDS011;53015;50.046;8.238;2022-08-19T00:50:45;15.88;;;12.60;;
66212;SDS011;53015;50.046;8.238;2022-08-19T00:53:14;15.93;;;12.43;;
66212;SDS011;53015;50.046;8.238;2022-08-19T00:55:48;14.75;;;11.25;;
66212;SDS011;53015;50.046;8.238;2022-08-19T00:58:17;14.02;;;12.02;;
66212;SDS011;53015;50.046;8.238;2022-08-19T01:00:45;16.58;;;12.52;;
66212;SDS011;53015;50.046;8.238;2022-08-19T01:03:13;14.48;;;12.07;;
66212;SDS011;53015;50.046;8.238;2022-08-19T01:05:42;14.45;;;12.15;;
66212;SDS011;53015;50.046;8.238;2022-08-19T01:08:09;17.02;;;12.18;;
66212;SDS011;53015;50.046;8.238;2022-08-19T01:10:40;15.32;;;11.63;;
66212;SDS011;53015;50.046;8.238;2022-08-19T01:13:19;16.95;;;11.75;;
66212;SDS011;53015;50.046;8.238;2022-08-19T01:15:50;12.55;;;11.23;;
66212;SDS011;53015;50.046;8.238;2022-08-19T01:18:18;14.23;;;11.52;;
66212;SDS011;53015;50.046;8.238;2022-08-19T01:20:45;13.45;;;10.63;;
66212;SDS011;53015;50.046;8.238;2022-08-19T01:23:11;13.60;;;11.40;;
66212;SDS011;53015;50.046;8.238;2022-08-19T01:28:13;16.33;;;11.30;;
66212;SDS011;53015;50.046;8.238;2022-08-19T01:30:44;13.38;;;11.30;;
66212;SDS011;53015;50.046;8.238;2022-08-19T01:33:10;13.25;;;10.75;;
66212;SDS011;53015;50.046;8.238;2022-08-19T01:35:35;14.82;;;11.90;;
66212;SDS011;53015;50.046;8.238;2022-08-19T01:38:05;16.42;;;11.60;;
66212;SDS011;53015;50.046;8.238;2022-08-19T01:40:36;15.30;;;12.27;;
66212;SDS011;53015;50.046;8.238;2022-08-19T01:43:04;14.35;;;12.38;;
66212;SDS011;53015;50.046;8.238;2022-08-19T01:45:31;22.40;;;12.88;;
66212;SDS011;53015;50.046;8.238;2022-08-19T01:47:58;16.02;;;12.32;;
66212;SDS011;53015;50.046;8.238;2022-08-19T01:50:24;15.40;;;12.25;;
66212;SDS011;53015;50.046;8.238;2022-08-19T01:52:50;17.92;;;13.77;;
66212;SDS011;53015;50.046;8.238;2022-08-19T01:55:18;17.75;;;13.10;;
66212;SDS011;53015;50.046;8.238;2022-08-19T01:57:48;17.20;;;13.27;;
66212;SDS011;53015;50.046;8.238;2022-08-19T02:00:17;16.65;;;13.50;;
66212;SDS011;53015;50.046;8.238;2022-08-19T02:02:44;15.90;;;13.05;;
66212;SDS011;53015;50.046;8.238;2022-08-19T02:05:10;16.33;;;12.38;;
66212;SDS011;53015;50.046;8.238;2022-08-19T02:07:36;15.73;;;12.55;;
66212;SDS011;53015;50.046;8.238;2022-08-19T02:10:08;14.43;;;12.32;;
66212;SDS011;53015;50.046;8.238;2022-08-19T02:12:35;16.13;;;12.82;;
66212;SDS011;53015;50.046;8.238;2022-08-19T02:15:01;14.88;;;11.52;;
66212;SDS011;53015;50.046;8.238;2022-08-19T02:17:28;16.00;;;12.38;;
66212;SDS011;53015;50.046;8.238;2022-08-19T02:19:54;20.65;;;11.68;;
66212;SDS011;53015;50.046;8.238;2022-08-19T02:22:21;14.73;;;11.95;;
66212;SDS011;53015;50.046;8.238;2022-08-19T02:24:47;15.13;;;12.00;;
66212;SDS011;53015;50.046;8.238;2022-08-19T02:27:13;15.52;;;11.07;;
66212;SDS011;53015;50.046;8.238;2022-08-19T02:29:39;16.38;;;11.60;;
66212;SDS011;53015;50.046;8.238;2022-08-19T02:32:04;12.88;;;10.95;;
66212;SDS011;53015;50.046;8.238;2022-08-19T02:34:30;13.70;;;11.50;;
66212;SDS011;53015;50.046;8.238;2022-08-19T02:36:55;14.10;;;11.85;;
66212;SDS011;53015;50.046;8.238;2022-08-19T02:39:20;12.98;;;11.57;;
66212;SDS011;53015;50.046;8.238;2022-08-19T02:41:46;13.85;;;12.02;;
66212;SDS011;53015;50.046;8.238;2022-08-19T02:44:11;13.52;;;11.23;;
66212;SDS011;53015;50.046;8.238;2022-08-19T02:46:37;12.88;;;11.25;;
66212;SDS011;53015;50.046;8.238;2022-08-19T02:49:06;14.52;;;11.55;;
66212;SDS011;53015;50.046;8.238;2022-08-19T02:51:33;12.75;;;10.77;;
66212;SDS011;53015;50.046;8.238;2022-08-19T02:54:04;15.60;;;11.15;;
66212;SDS011;53015;50.046;8.238;2022-08-19T02:56:30;14.20;;;11.52;;
66212;SDS011;53015;50.046;8.238;2022-08-19T02:58:56;12.07;;;10.70;;
66212;SDS011;53015;50.046;8.238;2022-08-19T03:03:49;14.38;;;10.82;;
66212;SDS011;53015;50.046;8.238;2022-08-19T03:06:15;14.25;;;11.70;;
66212;SDS011;53015;50.046;8.238;2022-08-19T03:08:42;14.20;;;11.27;;
66212;SDS011;53015;50.046;8.238;2022-08-19T03:14:05;17.92;;;12.55;;
66212;SDS011;53015;50.046;8.238;2022-08-19T03:16:33;14.68;;;11.00;;
66212;SDS011;53015;50.046;8.238;2022-08-19T03:19:05;14.15;;;11.02;;
66212;SDS011;53015;50.046;8.238;2022-08-19T03:21:31;14.27;;;11.02;;
66212;SDS011;53015;50.046;8.238;2022-08-19T03:23:58;18.73;;;11.68;;
66212;SDS011;53015;50.046;8.238;2022-08-19T03:26:25;16.00;;;11.27;;
66212;SDS011;53015;50.046;8.238;2022-08-19T03:28:51;14.48;;;11.50;;
66212;SDS011;53015;50.046;8.238;2022-08-19T03:31:17;11.68;;;10.45;;
66212;SDS011;53015;50.046;8.238;2022-08-19T03:33:45;12.38;;;10.85;;
66212;SDS011;53015;50.046;8.238;2022-08-19T03:36:15;13.82;;;10.85;;
66212;SDS011;53015;50.046;8.238;2022-08-19T03:38:45;13.63;;;11.23;;
66212;SDS011;53015;50.046;8.238;2022-08-19T03:41:14;12.48;;;10.77;;
66212;SDS011;53015;50.046;8.238;2022-08-19T03:43:42;13.73;;;11.60;;
66212;SDS011;53015;50.046;8.238;2022-08-19T03:46:12;15.35;;;12.13;;
66212;SDS011;53015;50.046;8.238;2022-08-19T03:48:40;12.55;;;11.02;;
66212;SDS011;53015;50.046;8.238;2022-08-19T03:51:07;14.07;;;11.35;;
66212;SDS011;53015;50.046;8.238;2022-08-19T03:53:40;12.75;;;10.88;;
66212;SDS011;53015;50.046;8.238;2022-08-19T03:56:05;12.90;;;11.25;;
66212;SDS011;53015;50.046;8.238;2022-08-19T03:58:34;14.55;;;11.45;;
66212;SDS011;53015;50.046;8.238;2022-08-19T04:00:59;13.73;;;10.88;;
66212;SDS011;53015;50.046;8.238;2022-08-19T04:03:25;12.32;;;11.13;;
66212;SDS011;53015;50.046;8.238;2022-08-19T04:05:52;12.82;;;11.43;;
66212;SDS011;53015;50.046;8.238;2022-08-19T04:08:18;14.18;;;11.65;;
66212;SDS011;53015;50.046;8.238;2022-08-19T04:10:47;13.18;;;11.38;;
66212;SDS011;53015;50.046;8.238;2022-08-19T04:13:14;13.15;;;11.05;;
66212;SDS011;53015;50.046;8.238;2022-08-19T04:15:41;12.88;;;11.32;;
66212;SDS011;53015;50.046;8.238;2022-08-19T04:18:09;13.05;;;10.68;;
66212;SDS011;53015;50.046;8.238;2022-08-19T04:20:43;13.25;;;11.00;;
66212;SDS011;53015;50.046;8.238;2022-08-19T04:23:10;17.52;;;10.88;;
66212;SDS011;53015;50.046;8.238;2022-08-19T04:25:37;14.10;;;10.98;;
66212;SDS011;53015;50.046;8.238;2022-08-19T04:28:06;13.30;;;10.75;;
66212;SDS011;53015;50.046;8.238;2022-08-19T04:30:37;12.07;;;10.65;;
66212;SDS011;53015;50.046;8.238;2022-08-19T04:33:07;20.92;;;12.23;;
66212;SDS011;53015;50.046;8.238;2022-08-19T04:35:37;15.02;;;11.57;;
66212;SDS011;53015;50.046;8.238;2022-08-19T04:38:07;12.70;;;10.25;;
66212;SDS011;53015;50.046;8.238;2022-08-19T04:40:33;16.38;;;10.95;;
66212;SDS011;53015;50.046;8.238;2022-08-19T04:43:17;12.50;;;10.48;;
66212;SDS011;53015;50.046;8.238;2022-08-19T04:45:43;13.30;;;11.68;;
66212;SDS011;53015;50.046;8.238;2022-08-19T04:48:09;13.48;;;10.73;;
66212;SDS011;53015;50.046;8.238;2022-08-19T04:50:36;14.15;;;10.98;;
66212;SDS011;53015;50.046;8.238;2022-08-19T04:53:01;13.77;;;10.70;;
66212;SDS011;53015;50.046;8.238;2022-08-19T04:55:26;12.88;;;9.80;;
66212;SDS011;53015;50.046;8.238;2022-08-19T04:57:52;16.48;;;10.95;;
66212;SDS011;53015;50.046;8.238;2022-08-19T05:00:21;13.18;;;10.45;;
66212;SDS011;53015;50.046;8.238;2022-08-19T05:02:46;13.05;;;10.20;;
66212;SDS011;53015;50.046;8.238;2022-08-19T05:05:14;13.57;;;10.38;;
66212;SDS011;53015;50.046;8.238;2022-08-19T05:07:39;12.57;;;10.18;;
66212;SDS011;53015;50.046;8.238;2022-08-19T05:10:06;11.13;;;9.88;;
66212;SDS011;53015;50.046;8.238;2022-08-19T05:12:32;13.98;;;9.68;;
66212;SDS011;53015;50.046;8.238;2022-08-19T05:14:58;12.95;;;10.07;;
66212;SDS011;53015;50.046;8.238;2022-08-19T05:17:25;13.00;;;9.52;;
66212;SDS011;53015;50.046;8.238;2022-08-19T05:19:52;13.30;;;9.50;;
66212;SDS011;53015;50.046;8.238;2022-08-19T05:22:35;13.75;;;9.00;;
66212;SDS011;53015;50.046;8.238;2022-08-19T05:25:05;12.18;;;9.93;;
66212;SDS011;53015;50.046;8.238;2022-08-19T05:27:37;11.65;;;9.48;;
66212;SDS011;53015;50.046;8.238;2022-08-19T05:30:02;15.10;;;9.10;;
66212;SDS011;53015;50.046;8.238;2022-08-19T05:32:29;10.73;;;9.27;;
66212;SDS011;53015;50.046;8.238;2022-08-19T05:34:55;11.05;;;8.90;;
66212;SDS011;53015;50.046;8.238;2022-08-19T05:37:21;13.25;;;9.70;;
66212;SDS011;53015;50.046;8.238;2022-08-19T05:39:47;14.45;;;9.43;;
66212;SDS011;53015;50.046;8.238;2022-08-19T05:42:13;10.25;;;9.15;;
66212;SDS011;53015;50.046;8.238;2022-08-19T05:44:41;13.02;;;9.82;;
66212;SDS011;53015;50.046;8.238;2022-08-19T05:47:09;10.85;;;9.20;;
66212;SDS011;53015;50.046;8.238;2022-08-19T05:49:36;10.15;;;8.57;;
66212;SDS011;53015;50.046;8.238;2022-08-19T05:52:06;10.40;;;8.60;;
66212;SDS011;53015;50.046;8.238;2022-08-19T05:54:33;12.55;;;9.32;;
66212;SDS011;53015;50.046;8.238;2022-08-19T05:57:01;13.63;;;8.75;;
66212;SDS011;53015;50.046;8.238;2022-08-19T05:59:27;12.70;;;8.48;;
66212;SDS011;53015;50.046;8.238;2022-08-19T06:01:53;10.38;;;9.23;;
66212;SDS011;53015;50.046;8.238;2022-08-19T06:04:21;12.68;;;8.32;;
66212;SDS011;53015;50.046;8.238;2022-08-19T06:06:47;9.43;;;8.40;;
66212;SDS011;53015;50.046;8.238;2022-08-19T06:09:16;10.93;;;8.68;;
66212;SDS011;53015;50.046;8.238;2022-08-19T06:11:43;13.75;;;8.88;;
66212;SDS011;53015;50.046;8.238;2022-08-19T06:14:11;9.20;;;7.25;;
66212;SDS011;53015;50.046;8.238;2022-08-19T06:16:39;10.48;;;7.30;;
66212;SDS011;53015;50.046;8.238;2022-08-19T06:19:07;11.07;;;7.57;;
66212;SDS011;53015;50.046;8.238;2022-08-19T06:21:36;11.77;;;6.82;;
66212;SDS011;53015;50.046;8.238;2022-08-19T06:24:04;13.32;;;7.90;;
66212;SDS011;53015;50.046;8.238;2022-08-19T06:26:32;9.60;;;7.75;;
66212;SDS011;53015;50.046;8.238;2022-08-19T06:29:04;11.68;;;7.90;;
66212;SDS011;53015;50.046;8.238;2022-08-19T06:31:31;9.63;;;7.55;;
66212;SDS011;53015;50.046;8.238;2022-08-19T06:33:59;16.73;;;8.18;;
66212;SDS011;53015;50.046;8.238;2022-08-19T06:36:28;10.23;;;6.93;;
66212;SDS011;53015;50.046;8.238;2022-08-19T06:38:58;7.55;;;6.85;;
66212;SDS011;53015;50.046;8.238;2022-08-19T06:41:25;8.27;;;6.78;;
66212;SDS011;53015;50.046;8.238;2022-08-19T06:43:51;12.27;;;6.78;;
66212;SDS011;53015;50.046;8.238;2022-08-19T06:46:17;9.85;;;7.60;;
66212;SDS011;53015;50.046;8.238;2022-08-19T06:48:44;10.48;;;7.15;;
66212;SDS011;53015;50.046;8.238;2022-08-19T06:51:11;8.85;;;6.93;;
66212;SDS011;53015;50.046;8.238;2022-08-19T06:53:40;8.43;;;7.00;;
66212;SDS011;53015;50.046;8.238;2022-08-19T06:56:06;9.52;;;6.40;;
66212;SDS011;53015;50.046;8.238;2022-08-19T06:58:32;10.88;;;7.03;;
66212;SDS011;53015;50.046;8.238;2022-08-19T07:00:58;11.32;;;7.13;;
66212;SDS011;53015;50.046;8.238;2022-08-19T07:03:26;11.65;;;7.30;;
66212;SDS011;53015;50.046;8.238;2022-08-19T07:05:53;11.63;;;7.75;;
66212;SDS011;53015;50.046;8.238;2022-08-19T07:08:19;14.20;;;8.02;;
66212;SDS011;53015;50.046;8.238;2022-08-19T07:10:45;11.60;;;7.65;;
66212;SDS011;53015;50.046;8.238;2022-08-19T07:13:11;10.40;;;7.18;;
66212;SDS011;53015;50.046;8.238;2022-08-19T07:15:36;11.60;;;7.13;;
66212;SDS011;53015;50.046;8.238;2022-08-19T07:18:02;9.68;;;7.60;;
66212;SDS011;53015;50.046;8.238;2022-08-19T07:20:28;11.70;;;8.80;;
66212;SDS011;53015;50.046;8.238;2022-08-19T07:22:53;10.98;;;7.03;;
66212;SDS011;53015;50.046;8.238;2022-08-19T07:25:19;12.02;;;7.20;;
66212;SDS011;53015;50.046;8.238;2022-08-19T07:27:48;10.95;;;7.07;;
66212;SDS011;53015;50.046;8.238;2022-08-19T07:30:14;10.52;;;7.47;;
66212;SDS011;53015;50.046;8.238;2022-08-19T07:32:40;11.63;;;7.70;;
66212;SDS011;53015;50.046;8.238;2022-08-19T07:35:06;8.82;;;7.00;;
66212;SDS011;53015;50.046;8.238;2022-08-19T07:37:32;9.55;;;6.80;;
66212;SDS011;53015;50.046;8.238;2022-08-19T07:39:57;12.10;;;6.30;;
66212;SDS011;53015;50.046;8.238;2022-08-19T07:42:23;10.40;;;6.88;;
66212;SDS011;53015;50.046;8.238;2022-08-19T07:44:48;14.23;;;7.82;;
66212;SDS011;53015;50.046;8.238;2022-08-19T07:47:13;10.93;;;7.30;;
66212;SDS011;53015;50.046;8.238;2022-08-19T07:49:40;9.50;;;7.57;;
66212;SDS011;53015;50.046;8.238;2022-08-19T07:52:07;9.15;;;7.47;;
66212;SDS011;53015;50.046;8.238;2022-08-19T07:54:34;8.00;;;6.63;;
66212;SDS011;53015;50.046;8.238;2022-08-19T07:57:02;11.48;;;7.28;;
66212;SDS011;53015;50.046;8.238;2022-08-19T07:59:28;13.13;;;7.57;;
66212;SDS011;53015;50.046;8.238;2022-08-19T08:01:54;11.93;;;7.85;;
66212;SDS011;53015;50.046;8.238;2022-08-19T08:04:20;10.90;;;7.70;;
66212;SDS011;53015;50.046;8.238;2022-08-19T08:07:05;15.13;;;9.85;;
66212;SDS011;53015;50.046;8.238;2022-08-19T08:09:50;12.15;;;9.60;;
66212;SDS011;53015;50.046;8.238;2022-08-19T08:12:18;11.57;;;9.13;;
66212;SDS011;53015;50.046;8.238;2022-08-19T08:14:51;12.15;;;9.63;;
66212;SDS011;53015;50.046;8.238;2022-08-19T08:17:20;15.48;;;12.52;;
66212;SDS011;53015;50.046;8.238;2022-08-19T08:19:47;13.80;;;11.98;;
66212;SDS011;53015;50.046;8.238;2022-08-19T08:22:15;17.25;;;11.13;;
66212;SDS011;53015;50.046;8.238;2022-08-19T08:25:02;17.55;;;13.13;;
66212;SDS011;53015;50.046;8.238;2022-08-19T08:30:06;17.08;;;11.50;;
66212;SDS011;53015;50.046;8.238;2022-08-19T08:32:37;14.43;;;11.20;;
66212;SDS011;53015;50.046;8.238;2022-08-19T08:35:08;13.20;;;9.75;;
66212;SDS011;53015;50.046;8.238;2022-08-19T08:37:41;16.30;;;11.20;;
66212;SDS011;53015;50.046;8.238;2022-08-19T08:42:49;17.35;;;13.52;;
66212;SDS011;53015;50.046;8.238;2022-08-19T08:45:19;17.77;;;13.43;;
66212;SDS011;53015;50.046;8.238;2022-08-19T08:47:47;14.57;;;12.10;;
66212;SDS011;53015;50.046;8.238;2022-08-19T08:52:53;12.73;;;10.15;;
66212;SDS011;53015;50.046;8.238;2022-08-19T08:55:23;14.77;;;9.85;;
66212;SDS011;53015;50.046;8.238;2022-08-19T08:57:53;10.27;;;9.02;;
66212;SDS011;53015;50.046;8.238;2022-08-19T09:02:53;11.95;;;9.60;;
66212;SDS011;53015;50.046;8.238;2022-08-19T09:05:19;9.82;;;8.32;;
66212;SDS011;53015;50.046;8.238;2022-08-19T09:10:32;10.60;;;9.05;;
66212;SDS011;53015;50.046;8.238;2022-08-19T09:18:53;8.77;;;7.97;;
66212;SDS011;53015;50.046;8.238;2022-08-19T09:21:25;12.25;;;7.40;;
66212;SDS011;53015;50.046;8.238;2022-08-19T09:23:52;8.68;;;7.70;;
66212;SDS011;53015;50.046;8.238;2022-08-19T09:26:20;10.35;;;8.90;;
66212;SDS011;53015;50.046;8.238;2022-08-19T09:28:48;11.65;;;9.27;;
66212;SDS011;53015;50.046;8.238;2022-08-19T09:31:19;11.52;;;10.30;;
66212;SDS011;53015;50.046;8.238;2022-08-19T09:33:47;13.55;;;10.30;;
66212;SDS011;53015;50.046;8.238;2022-08-19T09:36:14;12.50;;;11.30;;
66212;SDS011;53015;50.046;8.238;2022-08-19T09:38:41;12.95;;;11.63;;
66212;SDS011;53015;50.046;8.238;2022-08-19T09:41:08;11.93;;;10.15;;
66212;SDS011;53015;50.046;8.238;2022-08-19T09:43:39;14.57;;;10.20;;
66212;SDS011;53015;50.046;8.238;2022-08-19T09:46:06;12.50;;;10.57;;
66212;SDS011;53015;50.046;8.238;2022-08-19T09:48:37;11.30;;;9.63;;
66212;SDS011;53015;50.046;8.238;2022-08-19T09:51:13;10.95;;;9.27;;
66212;SDS011;53015;50.046;8.238;2022-08-19T09:53:42;12.45;;;10.05;;
66212;SDS011;53015;50.046;8.238;2022-08-19T09:56:08;11.07;;;8.20;;
66212;SDS011;53015;50.046;8.238;2022-08-19T09:58:34;10.95;;;8.63;;
66212;SDS011;53015;50.046;8.238;2022-08-19T10:01:01;9.55;;;8.55;;
66212;SDS011;53015;50.046;8.238;2022-08-19T10:03:29;15.90;;;7.30;;
66212;SDS011;53015;50.046;8.238;2022-08-19T10:05:56;8.13;;;6.93;;
66212;SDS011;53015;50.046;8.238;2022-08-19T10:08:27;8.45;;;7.40;;
66212;SDS011;53015;50.046;8.238;2022-08-19T10:10:56;8.32;;;7.07;;
66212;SDS011;53015;50.046;8.238;2022-08-19T10:13:24;7.60;;;6.90;;
66212;SDS011;53015;50.046;8.238;2022-08-19T10:15:52;6.65;;;6.05;;
66212;SDS011;53015;50.046;8.238;2022-08-19T10:18:19;8.63;;;6.13;;
66212;SDS011;53015;50.046;8.238;2022-08-19T10:20:46;7.10;;;6.35;;
66212;SDS011;53015;50.046;8.238;2022-08-19T10:23:13;8.02;;;6.45;;
66212;SDS011;53015;50.046;8.238;2022-08-19T10:25:40;6.07;;;5.47;;
66212;SDS011;53015;50.046;8.238;2022-08-19T10:28:05;7.07;;;5.20;;
66212;SDS011;53015;50.046;8.238;2022-08-19T10:30:31;8.63;;;5.22;;
66212;SDS011;53015;50.046;8.238;2022-08-19T10:32:57;6.80;;;5.40;;
66212;SDS011;53015;50.046;8.238;2022-08-19T10:35:22;7.38;;;5.43;;
66212;SDS011;53015;50.046;8.238;2022-08-19T10:37:49;7.15;;;5.00;;
66212;SDS011;53015;50.046;8.238;2022-08-19T10:40:15;7.50;;;5.20;;
66212;SDS011;53015;50.046;8.238;2022-08-19T10:42:40;8.20;;;4.80;;
66212;SDS011;53015;50.046;8.238;2022-08-19T10:45:06;4.90;;;4.25;;
66212;SDS011;53015;50.046;8.238;2022-08-19T10:47:33;6.80;;;5.57;;
66212;SDS011;53015;50.046;8.238;2022-08-19T10:49:59;6.80;;;5.05;;
66212;SDS011;53015;50.046;8.238;2022-08-19T10:52:44;7.72;;;5.30;;
66212;SDS011;53015;50.046;8.238;2022-08-19T10:55:12;5.78;;;5.05;;
66212;SDS011;53015;50.046;8.238;2022-08-19T10:57:56;7.40;;;4.88;;
66212;SDS011;53015;50.046;8.238;2022-08-19T11:00:22;5.20;;;4.70;;
66212;SDS011;53015;50.046;8.238;2022-08-19T11:02:49;5.40;;;4.65;;
66212;SDS011;53015;50.046;8.238;2022-08-19T11:05:14;4.57;;;4.18;;
66212;SDS011;53015;50.046;8.238;2022-08-19T11:07:41;7.20;;;4.80;;
66212;SDS011;53015;50.046;8.238;2022-08-19T11:10:09;3.85;;;3.47;;
66212;SDS011;53015;50.046;8.238;2022-08-19T11:12:38;3.95;;;3.40;;
66212;SDS011;53015;50.046;8.238;2022-08-19T11:15:05;4.72;;;3.83;;
66212;SDS011;53015;50.046;8.238;2022-08-19T11:17:32;5.18;;;3.83;;
66212;SDS011;53015;50.046;8.238;2022-08-19T11:19:58;5.85;;;3.72;;
66212;SDS011;53015;50.046;8.238;2022-08-19T11:22:27;4.85;;;4.10;;
66212;SDS011;53015;50.046;8.238;2022-08-19T11:24:52;5.78;;;4.07;;
66212;SDS011;53015;50.046;8.238;2022-08-19T11:27:17;3.70;;;3.40;;
66212;SDS011;53015;50.046;8.238;2022-08-19T11:29:43;3.95;;;3.45;;
66212;SDS011;53015;50.046;8.238;2022-08-19T11:32:09;4.63;;;4.05;;
66212;SDS011;53015;50.046;8.238;2022-08-19T11:34:36;5.50;;;4.10;;
66212;SDS011;53015;50.046;8.238;2022-08-19T11:37:02;4.25;;;3.85;;
66212;SDS011;53015;50.046;8.238;2022-08-19T11:39:29;4.35;;;3.85;;
66212;SDS011;53015;50.046;8.238;2022-08-19T11:41:57;4.45;;;3.92;;
66212;SDS011;53015;50.046;8.238;2022-08-19T11:44:23;4.40;;;3.92;;
66212;SDS011;53015;50.046;8.238;2022-08-19T11:46:50;6.78;;;3.50;;
66212;SDS011;53015;50.046;8.238;2022-08-19T11:49:17;3.95;;;3.55;;
66212;SDS011;53015;50.046;8.238;2022-08-19T11:51:44;4.25;;;3.63;;
66212;SDS011;53015;50.046;8.238;2022-08-19T11:54:10;5.28;;;3.78;;
66212;SDS011;53015;50.046;8.238;2022-08-19T11:56:36;6.85;;;4.00;;
66212;SDS011;53015;50.046;8.238;2022-08-19T11:59:03;7.13;;;3.55;;
66212;SDS011;53015;50.046;8.238;2022-08-19T12:01:28;3.80;;;3.28;;
66212;SDS011;53015;50.046;8.238;2022-08-19T12:03:54;4.65;;;3.50;;
66212;SDS011;53015;50.046;8.238;2022-08-19T12:06:22;6.43;;;3.30;;
66212;SDS011;53015;50.046;8.238;2022-08-19T12:08:56;5.18;;;3.40;;
66212;SDS011;53015;50.046;8.238;2022-08-19T12:11:23;5.85;;;3.30;;
66212;SDS011;53015;50.046;8.238;2022-08-19T12:13:48;5.40;;;3.38;;
66212;SDS011;53015;50.046;8.238;2022-08-19T12:16:16;5.70;;;3.58;;
66212;SDS011;53015;50.046;8.238;2022-08-19T12:18:44;5.85;;;3.88;;
66212;SDS011;53015;50.046;8.238;2022-08-19T12:21:14;3.55;;;3.35;;
66212;SDS011;53015;50.046;8.238;2022-08-19T12:23:46;5.50;;;3.95;;
66212;SDS011;53015;50.046;8.238;2022-08-19T12:26:13;6.95;;;3.53;;
66212;SDS011;53015;50.046;8.238;2022-08-19T12:28:38;4.75;;;3.83;;
66212;SDS011;53015;50.046;8.238;2022-08-19T12:31:04;5.38;;;3.92;;
66212;SDS011;53015;50.046;8.238;2022-08-19T12:33:31;4.10;;;3.70;;
66212;SDS011;53015;50.046;8.238;2022-08-19T12:36:01;4.38;;;3.50;;
66212;SDS011;53015;50.046;8.238;2022-08-19T12:38:28;5.43;;;3.50;;
66212;SDS011;53015;50.046;8.238;2022-08-19T12:40:54;4.43;;;3.50;;
66212;SDS011;53015;50.046;8.238;2022-08-19T12:43:20;4.45;;;3.58;;
66212;SDS011;53015;50.046;8.238;2022-08-19T12:45:45;4.93;;;3.60;;
66212;SDS011;53015;50.046;8.238;2022-08-19T12:48:11;4.88;;;3.83;;
66212;SDS011;53015;50.046;8.238;2022-08-19T12:50:39;5.15;;;3.70;;
66212;SDS011;53015;50.046;8.238;2022-08-19T12:53:10;4.90;;;4.40;;
66212;SDS011;53015;50.046;8.238;2022-08-19T12:55:36;4.10;;;3.80;;
66212;SDS011;53015;50.046;8.238;2022-08-19T12:58:02;3.83;;;3.42;;
66212;SDS011;53015;50.046;8.238;2022-08-19T13:00:27;4.88;;;3.80;;
66212;SDS011;53015;50.046;8.238;2022-08-19T13:02:53;4.75;;;3.83;;
66212;SDS011;53015;50.046;8.238;2022-08-19T13:05:22;7.35;;;3.78;;
66212;SDS011;53015;50.046;8.238;2022-08-19T13:07:50;4.93;;;3.70;;
66212;SDS011;53015;50.046;8.238;2022-08-19T13:10:19;4.43;;;3.28;;
66212;SDS011;53015;50.046;8.238;2022-08-19T13:12:46;3.78;;;3.33;;
66212;SDS011;53015;50.046;8.238;2022-08-19T13:15:14;3.42;;;3.13;;
66212;SDS011;53015;50.046;8.238;2022-08-19T13:17:43;4.65;;;3.20;;
66212;SDS011;53015;50.046;8.238;2022-08-19T13:20:08;4.10;;;3.40;;
66212;SDS011;53015;50.046;8.238;2022-08-19T13:22:35;4.13;;;3.33;;
66212;SDS011;53015;50.046;8.238;2022-08-19T13:25:02;5.03;;;2.80;;
66212;SDS011;53015;50.046;8.238;2022-08-19T13:27:28;4.93;;;3.17;;
66212;SDS011;53015;50.046;8.238;2022-08-19T13:29:54;5.32;;;3.63;;
66212;SDS011;53015;50.046;8.238;2022-08-19T13:32:38;4.05;;;3.17;;
66212;SDS011;53015;50.046;8.238;2022-08-19T13:35:22;3.92;;;3.45;;
66212;SDS011;53015;50.046;8.238;2022-08-19T13:37:48;4.38;;;3.03;;
66212;SDS011;53015;50.046;8.238;2022-08-19T13:40:15;5.32;;;3.78;;
66212;SDS011;53015;50.046;8.238;2022-08-19T13:42:47;8.90;;;3.60;;
66212;SDS011;53015;50.046;8.238;2022-08-19T13:45:15;3.88;;;3.40;;
66212;SDS011;53015;50.046;8.238;2022-08-19T13:47:44;4.43;;;3.45;;
66212;SDS011;53015;50.046;8.238;2022-08-19T13:50:14;4.13;;;3.35;;
66212;SDS011;53015;50.046;8.238;2022-08-19T13:52:42;4.70;;;4.07;;
66212;SDS011;53015;50.046;8.238;2022-08-19T13:55:08;5.03;;;4.32;;
66212;SDS011;53015;50.046;8.238;2022-08-19T13:57:35;8.07;;;4.22;;
66212;SDS011;53015;50.046;8.238;2022-08-19T14:00:04;3.97;;;3.65;;
66212;SDS011;53015;50.046;8.238;2022-08-19T14:02:32;4.50;;;3.55;;
66212;SDS011;53015;50.046;8.238;2022-08-19T14:04:58;5.00;;;3.47;;
66212;SDS011;53015;50.046;8.238;2022-08-19T14:07:23;3.83;;;3.42;;
66212;SDS011;53015;50.046;8.238;2022-08-19T14:09:49;4.90;;;3.55;;
66212;SDS011;53015;50.046;8.238;2022-08-19T14:12:18;4.82;;;3.75;;
66212;SDS011;53015;50.046;8.238;2022-08-19T14:14:45;4.68;;;3.22;;
66212;SDS011;53015;50.046;8.238;2022-08-19T14:17:10;5.22;;;4.00;;
66212;SDS011;53015;50.046;8.238;2022-08-19T14:19:35;4.00;;;3.60;;
66212;SDS011;53015;50.046;8.238;2022-08-19T14:22:01;5.60;;;3.90;;
66212;SDS011;53015;50.046;8.238;2022-08-19T14:24:26;4.47;;;4.05;;
66212;SDS011;53015;50.046;8.238;2022-08-19T14:26:52;4.05;;;3.60;;
66212;SDS011;53015;50.046;8.238;2022-08-19T14:29:18;3.75;;;3.38;;
66212;SDS011;53015;50.046;8.238;2022-08-19T14:31:43;6.10;;;3.38;;
66212;SDS011;53015;50.046;8.238;2022-08-19T14:34:09;3.72;;;3.20;;
66212;SDS011;53015;50.046;8.238;2022-08-19T14:36:35;4.13;;;3.60;;
66212;SDS011;53015;50.046;8.238;2022-08-19T14:39:01;4.20;;;3.40;;
66212;SDS011;53015;50.046;8.238;2022-08-19T14:41:27;5.60;;;3.75;;
66212;SDS011;53015;50.046;8.238;2022-08-19T14:43:53;5.60;;;3.67;;
66212;SDS011;53015;50.046;8.238;2022-08-19T14:46:20;3.55;;;3.25;;
66212;SDS011;53015;50.046;8.238;2022-08-19T14:48:48;3.78;;;3.47;;
66212;SDS011;53015;50.046;8.238;2022-08-19T14:51:14;3.90;;;3.22;;
66212;SDS011;53015;50.046;8.238;2022-08-19T14:53:40;7.18;;;3.45;;
66212;SDS011;53015;50.046;8.238;2022-08-19T14:56:10;6.35;;;3.28;;
66212;SDS011;53015;50.046;8.238;2022-08-19T15:01:05;3.60;;;3.30;;
66212;SDS011;53015;50.046;8.238;2022-08-19T15:03:31;3.60;;;3.30;;
66212;SDS011;53015;50.046;8.238;2022-08-19T15:05:57;4.32;;;3.53;;
66212;SDS011;53015;50.046;8.238;2022-08-19T15:08:24;3.50;;;3.20;;